Terminal Aerodrome Forecast
Issued by NWS Memphis, TN

Home | Current Version | Previous Version | Text Only | Print | Product List | Glossary On
Versions: 1 2 3 4 5 6 7 8 9 10 11 12 13 14 15 16 17 18 19 20
000
FTUS44 KMEG 282328
TAFJBR
TAF
KJBR 282328Z 2900/2924 19010G16KT P6SM SCT250 WS015/21045KT
     FM290900 20012G18KT P6SM SCT009 BKN025 WS015/22045KT
     FM291200 20012G18KT P6SM BKN009 OVC025
     FM291500 20015G25KT P6SM OVC010
     FM291800 20018G28KT P6SM BKN025=

USA.gov is the U.S. government's official web portal to all federal, state and local government web resources and services.